KDUX

Moore County Airport

Dumas, Texas, USA
METAR KDUX 171635Z AUTO 05007KT 10SM CLR 28/18 A3019 RMK AO2 T02830184
Observed Flight Rules
Aug-17 @ 16:35 UTC (17 minutes ago) Visual Flight Rules
Wind Visibility Clouds
50° at 7 knots 10 miles
  • Clear skies
Temperatures Readings
Current 28°C / 82°F
Dewpoint 18°C / 64°F
Humidity 55%
Altimeter 30.19" Hg
Pressure 1022 hPa
Elevation 1129
METAR KDUX 171635Z AUTO 05007KT 10SM CLR 28/18 A3019 RMK AO2 T02830184
Observed Flight Rules
Aug-17 @ 16:35 UTC
(17 minutes ago)
VFR
Wind Visibility
50° at 7 knots 10 miles
Clouds
  • Clear skies
Temperature Dewpoint
28°C / 82°F 18°C / 64°F
Humidity Altimeter Pressure
55% 30.19" Hg 1022 hPa